Avon, Utah
Current Conditions -  °F | °C
As of 1:35 AM on Monday 22 Dec 2014 (Local Time) from KBMC Reporting Station
Overcast Overcast  
Wind Chill: 36°   Ceiling: 8000
Heat Index: 40°   Visibility: 10mi
Dew Point: 33°   Wind: 6mph
Humidity: 75%   Direction: 310°NW
Pressure: 30.03"   Gusts: NA
Location:  41.5397°N, 111.856°W
Report Text: KBMC 220835Z AUTO 31005KT 10SM SCT050 OVC080 05/00 A3003 RMK AO1 T00450004
Loading
Personal Weather Stations






























Interactive Weather Map New forecast layout! Learn more

10-Day Weather Forecast

Advertisements
Track Severe Weather on mobile